Time;durP1;ratioP1;P1;durP2;ratioP2;P2;SDS_P1;SDS_P2;PMS_P1;PMS_P2;Temp;Humidity;BMP_temperature;BMP_pressure;BME280_temperature;BME280_humidity;BME280_pressure;Samples;Min_cycle;Max_cycle;Signal;HPM_P1;HPM_P2
2021/05/27 00:01:58;;;;;;;2.28;1.73;;;8.10;99.90;;;;;;5046214;28;20216;-69
2021/05/27 00:04:24;;;;;;;1.90;1.80;;;8.10;99.90;;;;;;5046731;28;20220;-69
2021/05/27 00:06:51;;;;;;;2.55;1.92;;;8.20;99.90;;;;;;5046618;28;20216;-69
2021/05/27 00:09:17;;;;;;;1.88;1.73;;;8.20;99.90;;;;;;5046553;28;20346;-69
2021/05/27 00:11:44;;;;;;;1.80;1.67;;;8.20;99.90;;;;;;5046719;28;20207;-69
2021/05/27 00:14:10;;;;;;;2.88;2.00;;;8.20;99.90;;;;;;5046574;28;20194;-69
2021/05/27 00:16:36;;;;;;;2.55;1.90;;;8.20;99.90;;;;;;5046526;28;20205;-68
2021/05/27 00:19:03;;;;;;;4.35;1.80;;;8.10;99.90;;;;;;5046316;28;20205;-68
2021/05/27 00:21:29;;;;;;;1.65;1.50;;;8.20;99.90;;;;;;5046528;28;20673;-69
2021/05/27 00:23:57;;;;;;;2.00;1.80;;;8.20;99.90;;;;;;5048388;28;20228;-69
2021/05/27 00:26:23;;;;;;;2.00;1.80;;;8.20;99.90;;;;;;5050664;28;20579;-69
2021/05/27 00:28:49;;;;;;;1.70;1.50;;;8.20;99.90;;;;;;5049460;28;20205;-69
2021/05/27 00:31:15;;;;;;;2.50;1.90;;;8.20;99.90;;;;;;5050711;28;20291;-69
2021/05/27 00:33:42;;;;;;;2.00;1.80;;;8.10;99.90;;;;;;5052192;28;20251;-69
2021/05/27 00:36:08;;;;;;;1.90;1.70;;;8.10;99.90;;;;;;5053557;28;20208;-69
2021/05/27 00:38:35;;;;;;;2.08;1.70;;;8.10;99.90;;;;;;5050655;28;20750;-69
2021/05/27 00:41:02;;;;;;;1.90;1.80;;;8.10;99.90;;;;;;5052892;28;20204;-69
2021/05/27 00:43:28;;;;;;;2.38;2.17;;;8.10;99.90;;;;;;5052935;28;20221;-69
2021/05/27 00:45:54;;;;;;;4.28;1.70;;;8.10;99.90;;;;;;5053480;28;20680;-69
2021/05/27 00:51:05;;;;;;;1.73;1.63;;;8.00;99.90;;;;;;5052691;28;20582;-68
2021/05/27 00:53:32;;;;;;;2.70;2.50;;;8.00;99.90;;;;;;5052912;28;20225;-69
2021/05/27 00:55:59;;;;;;;2.20;2.00;;;8.00;99.90;;;;;;5052953;28;20197;-68
2021/05/27 00:58:27;;;;;;;1.92;1.83;;;8.00;99.90;;;;;;5053057;28;20327;-69
2021/05/27 01:00:53;;;;;;;2.33;2.13;;;8.00;99.90;;;;;;5053972;28;20208;-70
2021/05/27 01:03:20;;;;;;;2.00;1.80;;;7.90;99.90;;;;;;5056642;28;20221;-69
2021/05/27 01:05:46;;;;;;;1.85;1.75;;;8.00;99.90;;;;;;5052661;28;20587;-69
2021/05/27 01:08:13;;;;;;;2.10;1.90;;;7.90;99.90;;;;;;5052598;28;20664;-70
2021/05/27 01:10:40;;;;;;;2.40;2.20;;;7.90;99.90;;;;;;5052512;28;20201;-68
2021/05/27 01:13:06;;;;;;;2.47;2.28;;;7.90;99.90;;;;;;5052487;28;20270;-70
2021/05/27 01:15:35;;;;;;;2.30;2.10;;;7.90;99.90;;;;;;5052881;28;20201;-70
2021/05/27 01:18:10;;;;;;;2.92;2.05;;;8.00;99.90;;;;;;5052435;28;20684;-70
2021/05/27 01:20:41;;;;;;;2.78;1.77;;;7.90;99.90;;;;;;5052515;28;20204;-68
2021/05/27 01:23:09;;;;;;;2.03;1.80;;;7.90;99.90;;;;;;5052288;28;20315;-70
2021/05/27 01:25:36;;;;;;;2.40;2.05;;;7.90;99.90;;;;;;5052624;28;20573;-70
2021/05/27 01:28:03;;;;;;;3.40;2.60;;;7.90;99.90;;;;;;5051951;28;20263;-68
2021/05/27 01:30:29;;;;;;;6.22;2.25;;;7.90;99.90;;;;;;5052163;28;20201;-70
2021/05/27 01:32:56;;;;;;;2.20;2.00;;;7.90;99.90;;;;;;5052206;28;20243;-70
2021/05/27 01:35:24;;;;;;;2.85;2.33;;;7.90;99.90;;;;;;5052147;28;20251;-70
2021/05/27 01:37:51;;;;;;;2.65;1.70;;;7.90;99.90;;;;;;5051453;28;20231;-70
2021/05/27 01:40:20;;;;;;;2.47;2.28;;;8.00;99.90;;;;;;5052210;28;20216;-71
2021/05/27 01:42:47;;;;;;;3.17;2.20;;;8.00;99.90;;;;;;5051932;28;20233;-70
2021/05/27 01:45:14;;;;;;;3.42;2.05;;;7.90;99.90;;;;;;5052086;28;20217;-70
2021/05/27 01:47:41;;;;;;;4.88;2.20;;;8.00;99.90;;;;;;5051979;28;20197;-68
2021/05/27 01:50:10;;;;;;;2.22;2.03;;;8.00;99.90;;;;;;5051985;28;20267;-69
2021/05/27 01:52:36;;;;;;;2.40;2.20;;;7.90;99.90;;;;;;5051730;28;20229;-70
2021/05/27 01:55:04;;;;;;;3.35;2.25;;;7.90;99.90;;;;;;5051768;28;20208;-69
2021/05/27 01:57:31;;;;;;;2.75;2.35;;;8.00;99.90;;;;;;5051859;28;20205;-70
2021/05/27 01:59:57;;;;;;;2.83;1.98;;;8.00;99.90;;;;;;5051624;28;20209;-69
2021/05/27 02:02:23;;;;;;;2.63;1.70;;;8.00;99.90;;;;;;5051502;28;20618;-69
2021/05/27 02:04:49;;;;;;;2.13;1.92;;;8.00;99.90;;;;;;5051484;28;20228;-69
2021/05/27 02:07:16;;;;;;;2.92;2.53;;;8.00;99.90;;;;;;5051979;28;20193;-69
2021/05/27 02:09:42;;;;;;;1.92;1.83;;;8.00;99.90;;;;;;5051476;28;20239;-69
2021/05/27 02:12:09;;;;;;;3.22;2.20;;;8.00;99.90;;;;;;5051425;28;20221;-70
2021/05/27 02:14:36;;;;;;;2.50;1.90;;;8.00;99.90;;;;;;5051619;28;20205;-70
2021/05/27 02:17:03;;;;;;;2.28;2.08;;;8.00;99.90;;;;;;5051253;28;20742;-69
2021/05/27 02:19:29;;;;;;;2.45;2.25;;;8.00;99.90;;;;;;5051070;28;20216;-70
2021/05/27 02:21:55;;;;;;;2.35;2.15;;;8.00;99.90;;;;;;5051278;28;20619;-70
2021/05/27 02:24:21;;;;;;;2.42;2.20;;;8.00;99.90;;;;;;5051499;28;20225;-70
2021/05/27 02:26:48;;;;;;;1.90;1.80;;;8.00;99.90;;;;;;5051431;28;20212;-69
2021/05/27 02:29:14;;;;;;;1.90;1.63;;;8.10;99.90;;;;;;5051191;28;20201;-70
2021/05/27 02:31:41;;;;;;;1.60;1.50;;;8.00;99.90;;;;;;5051228;28;20201;-70
2021/05/27 02:34:07;;;;;;;2.00;1.80;;;8.00;99.90;;;;;;5051150;28;20209;-68
2021/05/27 02:36:34;;;;;;;1.90;1.70;;;8.00;99.90;;;;;;5051275;28;20205;-69
2021/05/27 02:39:00;;;;;;;2.13;1.88;;;8.00;99.90;;;;;;5050416;28;20205;-69
2021/05/27 02:41:26;;;;;;;2.33;2.00;;;8.00;99.90;;;;;;5050907;28;20208;-69
2021/05/27 02:43:52;;;;;;;2.63;2.00;;;8.00;99.90;;;;;;5050797;28;20689;-69
2021/05/27 02:46:20;;;;;;;2.20;2.00;;;8.00;99.90;;;;;;5050551;28;20204;-69
2021/05/27 02:48:47;;;;;;;1.80;1.30;;;8.00;99.90;;;;;;5050619;28;20197;-70
2021/05/27 02:51:14;;;;;;;3.67;2.10;;;8.00;99.90;;;;;;5051113;28;20235;-70
2021/05/27 02:53:40;;;;;;;2.20;2.00;;;7.90;99.90;;;;;;5050646;28;20233;-70
2021/05/27 02:56:06;;;;;;;2.30;2.10;;;7.90;99.90;;;;;;5050664;28;20200;-70
2021/05/27 02:58:32;;;;;;;1.90;1.60;;;8.00;99.90;;;;;;5050779;28;20576;-70
2021/05/27 03:00:59;;;;;;;2.10;1.90;;;7.90;99.90;;;;;;5050729;28;20231;-70
2021/05/27 03:03:25;;;;;;;1.80;1.67;;;7.90;99.90;;;;;;5050643;28;20708;-70
2021/05/27 03:05:52;;;;;;;2.60;1.80;;;7.90;99.90;;;;;;5050643;28;20251;-70
2021/05/27 03:08:19;;;;;;;1.90;1.70;;;7.90;99.90;;;;;;5050370;28;20296;-70
2021/05/27 03:10:45;;;;;;;2.08;1.90;;;7.90;99.90;;;;;;5050593;28;20582;-70
2021/05/27 03:13:11;;;;;;;1.83;1.73;;;7.90;99.90;;;;;;5050398;28;20229;-70
2021/05/27 03:15:38;;;;;;;1.88;1.75;;;7.80;99.90;;;;;;5050631;28;20204;-70
2021/05/27 03:18:06;;;;;;;2.85;1.90;;;7.80;99.90;;;;;;5049844;28;20201;-71
2021/05/27 03:20:33;;;;;;;1.83;1.73;;;7.90;99.90;;;;;;5050313;28;20201;-70
2021/05/27 03:23:01;;;;;;;3.88;1.85;;;7.90;99.90;;;;;;5050169;28;20271;-70
2021/05/27 03:25:27;;;;;;;3.05;1.88;;;7.90;99.90;;;;;;5050429;28;20232;-71
2021/05/27 03:27:53;;;;;;;2.00;1.90;;;7.90;99.90;;;;;;5049855;28;20201;-69
2021/05/27 03:30:20;;;;;;;2.45;1.77;;;7.90;99.90;;;;;;5049860;28;20271;-72
2021/05/27 03:32:47;;;;;;;1.95;1.75;;;7.90;99.90;;;;;;5049744;28;20231;-72
2021/05/27 03:35:13;;;;;;;1.90;1.80;;;8.00;99.90;;;;;;5049879;28;20204;-72
2021/05/27 03:37:40;;;;;;;2.00;1.80;;;8.10;99.90;;;;;;5049726;28;20208;-72
2021/05/27 03:40:13;;;;;;;2.25;2.05;;;8.10;99.90;;;;;;5049770;28;20213;-71
2021/05/27 03:42:41;;;;;;;2.30;2.10;;;8.10;99.90;;;;;;5049718;28;20229;-72
2021/05/27 03:45:10;;;;;;;1.73;1.60;;;8.10;99.90;;;;;;5050614;28;20224;-69
2021/05/27 03:47:38;;;;;;;2.42;2.22;;;8.20;99.90;;;;;;5050402;28;20211;-70
2021/05/27 03:50:06;;;;;;;1.80;1.70;;;8.10;99.90;;;;;;5049854;28;20613;-69
2021/05/27 03:52:32;;;;;;;2.45;2.05;;;8.10;99.90;;;;;;5049787;28;20229;-71
2021/05/27 03:54:58;;;;;;;2.90;2.38;;;8.10;99.90;;;;;;5049674;28;20673;-71
2021/05/27 03:57:26;;;;;;;2.13;1.77;;;8.10;99.90;;;;;;5051131;28;20216;-69
2021/05/27 04:02:42;;;;;;;1.90;1.80;;;8.10;99.90;;;;;;5051203;28;20703;-68
2021/05/27 04:07:53;;;;;;;2.47;2.28;;;8.10;99.90;;;;;;5053613;28;20284;-68
2021/05/27 04:10:20;;;;;;;2.10;1.90;;;8.10;99.90;;;;;;5054013;28;20680;-67
2021/05/27 04:12:47;;;;;;;2.35;2.15;;;8.10;99.90;;;;;;5053705;28;20225;-67
2021/05/27 04:15:22;;;;;;;2.75;1.92;;;8.10;99.90;;;;;;5053784;28;20203;-68
2021/05/27 04:17:59;;;;;;;1.83;1.67;;;8.10;99.90;;;;;;5052146;28;20201;-67
2021/05/27 04:20:28;;;;;;;2.47;2.20;;;8.10;99.90;;;;;;5053407;28;20576;-68
2021/05/27 04:22:55;;;;;;;2.60;2.40;;;8.10;99.90;;;;;;5053224;28;20320;-68
2021/05/27 04:25:24;;;;;;;2.30;1.80;;;8.20;99.90;;;;;;5053486;28;20869;-68
2021/05/27 04:27:52;;;;;;;2.33;2.10;;;8.20;99.90;;;;;;5053093;28;20201;-67
2021/05/27 04:30:20;;;;;;;2.00;1.80;;;8.20;99.90;;;;;;5050976;28;20219;-67
2021/05/27 04:32:59;;;;;;;2.22;2.00;;;8.20;99.90;;;;;;5050711;28;20220;-67
2021/05/27 04:35:32;;;;;;;2.65;1.95;;;8.30;99.90;;;;;;5051747;28;20193;-67
2021/05/27 04:38:00;;;;;;;2.42;2.22;;;8.20;99.90;;;;;;5050806;28;20197;-67
2021/05/27 04:40:27;;;;;;;2.60;2.40;;;8.30;99.90;;;;;;5052191;28;20232;-66
2021/05/27 04:42:54;;;;;;;2.47;2.28;;;8.30;99.90;;;;;;5051697;28;20225;-67
2021/05/27 04:45:20;;;;;;;2.97;2.30;;;8.30;99.90;;;;;;5052559;28;20631;-67
2021/05/27 04:47:47;;;;;;;2.70;2.50;;;8.30;99.90;;;;;;5053237;28;20204;-67
2021/05/27 04:50:13;;;;;;;2.58;1.95;;;8.30;99.90;;;;;;5053277;28;20208;-67
2021/05/27 04:52:41;;;;;;;2.75;2.55;;;8.30;99.90;;;;;;5052931;28;20240;-67
2021/05/27 04:55:09;;;;;;;2.08;1.98;;;8.30;99.90;;;;;;5053084;28;20209;-68
2021/05/27 04:57:36;;;;;;;2.95;2.65;;;8.30;99.90;;;;;;5052796;28;20209;-68
2021/05/27 05:00:05;;;;;;;3.13;2.30;;;8.30;99.90;;;;;;5052705;28;20201;-68
2021/05/27 05:02:31;;;;;;;2.97;2.60;;;8.30;99.90;;;;;;5033219;28;20601;-67
2021/05/27 05:04:58;;;;;;;2.17;1.98;;;8.40;99.90;;;;;;5033014;28;20225;-70
2021/05/27 05:07:24;;;;;;;3.15;2.45;;;8.40;99.90;;;;;;5033043;28;20201;-71
2021/05/27 05:09:50;;;;;;;6.05;2.25;;;8.50;99.90;;;;;;5031782;28;20202;-67
2021/05/27 05:12:17;;;;;;;4.25;2.90;;;8.50;99.90;;;;;;5032887;28;20226;-68
2021/05/27 05:14:43;;;;;;;3.03;2.50;;;8.50;99.90;;;;;;5032770;28;20198;-68
2021/05/27 05:17:10;;;;;;;3.72;2.55;;;8.60;99.90;;;;;;5032618;28;20209;-68
2021/05/27 05:19:36;;;;;;;3.08;2.72;;;8.60;99.90;;;;;;5037089;28;20688;-67
2021/05/27 05:22:03;;;;;;;3.33;2.42;;;8.60;99.90;;;;;;5052173;28;20267;-68
2021/05/27 05:24:29;;;;;;;2.60;2.40;;;8.60;99.90;;;;;;5052616;28;20244;-68
2021/05/27 05:26:55;;;;;;;3.58;3.10;;;8.70;99.90;;;;;;5052239;28;20228;-68
2021/05/27 05:29:21;;;;;;;3.17;2.35;;;8.70;99.90;;;;;;5052406;28;20205;-67
2021/05/27 05:31:48;;;;;;;2.30;2.10;;;8.80;99.90;;;;;;5052138;28;20225;-68
2021/05/27 05:34:15;;;;;;;3.55;3.25;;;8.90;99.90;;;;;;5052274;28;20205;-68
2021/05/27 05:36:41;;;;;;;2.83;2.20;;;8.90;99.90;;;;;;5052066;28;20762;-67
2021/05/27 05:39:07;;;;;;;3.65;2.92;;;9.00;99.90;;;;;;5051345;28;20213;-68
2021/05/27 05:41:34;;;;;;;2.50;2.30;;;9.00;99.90;;;;;;5052217;28;20201;-68
2021/05/27 05:44:00;;;;;;;2.15;1.95;;;9.10;99.90;;;;;;5051902;28;20201;-68
2021/05/27 05:46:27;;;;;;;5.68;2.42;;;9.10;99.90;;;;;;5052178;28;20224;-67
2021/05/27 05:48:53;;;;;;;2.30;2.10;;;9.20;99.90;;;;;;5051742;28;20562;-68
2021/05/27 05:51:20;;;;;;;2.40;2.10;;;9.20;99.90;;;;;;5051963;28;20680;-67
2021/05/27 05:53:47;;;;;;;1.92;1.80;;;9.20;99.90;;;;;;5051784;28;20237;-67
2021/05/27 05:56:13;;;;;;;2.25;2.05;;;9.30;99.90;;;;;;5051907;28;20589;-68
2021/05/27 05:58:39;;;;;;;2.35;1.85;;;9.40;99.90;;;;;;5051416;28;20197;-67
2021/05/27 06:01:05;;;;;;;4.20;2.20;;;9.40;99.90;;;;;;5051313;28;20201;-67
2021/05/27 06:03:33;;;;;;;2.80;1.95;;;9.50;99.90;;;;;;5051818;28;20287;-67
2021/05/27 06:06:00;;;;;;;5.57;2.28;;;9.50;99.90;;;;;;5051554;28;20414;-68
2021/05/27 06:08:27;;;;;;;6.05;1.80;;;9.60;99.90;;;;;;5051419;28;20201;-68
2021/05/27 06:10:54;;;;;;;3.78;1.80;;;9.60;99.90;;;;;;5049910;28;20201;-68
2021/05/27 06:13:20;;;;;;;2.50;2.10;;;9.60;99.90;;;;;;5051428;28;20225;-68
2021/05/27 06:15:46;;;;;;;2.17;1.98;;;9.70;99.90;;;;;;5051413;28;20193;-68
2021/05/27 06:18:12;;;;;;;2.40;1.50;;;9.80;99.90;;;;;;5051370;28;20216;-68
2021/05/27 06:20:39;;;;;;;1.98;1.80;;;9.80;99.90;;;;;;5050451;28;20205;-68
2021/05/27 06:23:05;;;;;;;2.10;1.90;;;9.90;99.90;;;;;;5050670;28;20221;-68
2021/05/27 06:25:33;;;;;;;1.90;1.75;;;10.00;99.90;;;;;;5051355;28;20579;-68
2021/05/27 06:27:59;;;;;;;10.13;2.50;;;10.10;99.90;;;;;;5050917;28;20754;-68
2021/05/27 06:30:28;;;;;;;2.20;1.77;;;10.10;99.90;;;;;;5051487;28;20235;-68
2021/05/27 06:32:55;;;;;;;5.40;1.98;;;10.30;99.90;;;;;;5050793;28;20307;-68
2021/05/27 06:35:21;;;;;;;5.57;1.92;;;10.30;99.90;;;;;;5050895;28;20670;-68
2021/05/27 06:37:48;;;;;;;3.45;1.90;;;10.30;99.90;;;;;;5049332;28;20646;-68
2021/05/27 06:40:16;;;;;;;2.28;1.77;;;10.40;99.90;;;;;;5051369;28;20201;-68
2021/05/27 06:42:44;;;;;;;2.55;1.70;;;10.50;99.90;;;;;;5050790;28;20221;-68
2021/05/27 06:45:11;;;;;;;7.15;2.03;;;10.60;99.90;;;;;;5050858;28;20232;-68
2021/05/27 06:47:38;;;;;;;2.50;1.80;;;10.80;99.90;;;;;;5050817;28;20209;-68
2021/05/27 06:50:06;;;;;;;2.33;1.58;;;10.90;99.90;;;;;;5050369;28;20217;-68
2021/05/27 06:52:33;;;;;;;5.80;1.65;;;11.00;99.90;;;;;;5050827;28;20629;-67
2021/05/27 06:54:59;;;;;;;4.18;2.00;;;11.10;99.90;;;;;;5050516;28;20872;-68
2021/05/27 06:57:25;;;;;;;2.30;1.83;;;11.00;99.90;;;;;;5050816;28;20209;-68
2021/05/27 06:59:52;;;;;;;1.88;1.70;;;11.00;99.90;;;;;;5049997;28;20205;-68
2021/05/27 07:02:19;;;;;;;2.05;1.95;;;11.00;99.90;;;;;;5050677;28;20259;-68
2021/05/27 07:04:45;;;;;;;1.67;1.58;;;11.00;99.90;;;;;;5050423;28;20671;-70
2021/05/27 07:07:12;;;;;;;2.00;1.50;;;11.00;99.90;;;;;;5050803;28;20321;-68
2021/05/27 07:09:39;;;;;;;2.63;1.70;;;11.00;99.90;;;;;;5050344;28;20680;-68
2021/05/27 07:12:06;;;;;;;4.25;1.50;;;11.10;99.90;;;;;;5050109;28;20236;-67
2021/05/27 07:14:32;;;;;;;2.40;1.60;;;11.20;99.90;;;;;;5050405;28;20549;-69
2021/05/27 07:16:59;;;;;;;2.75;1.70;;;11.20;99.90;;;;;;5050432;28;20229;-68
2021/05/27 07:19:27;;;;;;;2.00;1.45;;;11.20;99.90;;;;;;5050343;28;20703;-68
2021/05/27 07:21:53;;;;;;;1.90;1.48;;;11.10;99.90;;;;;;5050253;28;20669;-68
2021/05/27 07:24:19;;;;;;;2.15;1.50;;;11.20;99.90;;;;;;5050085;28;20227;-69
2021/05/27 07:26:46;;;;;;;1.85;1.40;;;11.30;99.90;;;;;;5049910;28;20259;-71
2021/05/27 07:29:12;;;;;;;1.65;1.55;;;11.40;99.90;;;;;;5049907;28;20258;-69
2021/05/27 07:31:39;;;;;;;1.75;1.35;;;11.40;99.90;;;;;;5049640;28;20216;-69
2021/05/27 07:34:06;;;;;;;2.60;1.77;;;11.50;99.90;;;;;;5049649;28;20266;-68
2021/05/27 07:36:33;;;;;;;2.03;1.40;;;11.60;99.90;;;;;;5050260;28;20197;-69
2021/05/27 07:38:59;;;;;;;1.55;1.45;;;11.70;99.90;;;;;;5049219;28;20588;-68
2021/05/27 07:41:26;;;;;;;2.10;1.52;;;11.60;99.90;;;;;;5049498;28;20197;-69
2021/05/27 07:43:52;;;;;;;1.80;1.60;;;11.60;99.90;;;;;;5050026;28;20581;-69
2021/05/27 07:46:20;;;;;;;2.40;1.80;;;11.60;99.90;;;;;;5050120;28;20282;-68
2021/05/27 07:48:46;;;;;;;4.60;1.27;;;11.60;99.90;;;;;;5049472;28;20208;-69
2021/05/27 07:51:13;;;;;;;2.03;1.83;;;11.60;99.90;;;;;;5049930;28;20574;-68
2021/05/27 07:53:40;;;;;;;1.45;1.30;;;11.80;99.90;;;;;;5048873;28;20240;-68
2021/05/27 07:56:06;;;;;;;1.90;1.42;;;12.00;99.90;;;;;;5049931;28;20204;-69
2021/05/27 07:58:35;;;;;;;4.90;2.10;;;12.20;99.90;;;;;;5049540;28;20205;-68
2021/05/27 08:01:01;;;;;;;2.58;1.90;;;12.30;99.90;;;;;;5049904;28;20965;-69
2021/05/27 08:03:27;;;;;;;1.60;1.50;;;12.20;99.90;;;;;;5049917;28;20225;-69
2021/05/27 08:05:53;;;;;;;2.13;1.77;;;12.20;99.90;;;;;;5049526;28;20308;-69
2021/05/27 08:08:20;;;;;;;1.80;1.50;;;12.20;99.90;;;;;;5050033;28;20205;-69
2021/05/27 08:10:47;;;;;;;2.20;2.00;;;12.20;99.90;;;;;;5049891;28;20205;-69
2021/05/27 08:13:13;;;;;;;1.97;1.77;;;12.20;99.90;;;;;;5049929;28;20231;-69
2021/05/27 08:15:40;;;;;;;3.13;1.63;;;12.20;99.90;;;;;;5048979;28;20465;-69
2021/05/27 08:18:06;;;;;;;4.68;1.70;;;12.20;99.90;;;;;;5049275;28;20248;-69
2021/05/27 08:20:32;;;;;;;1.90;1.77;;;12.20;99.90;;;;;;5048555;28;20201;-69
2021/05/27 08:22:59;;;;;;;4.07;2.00;;;12.10;99.90;;;;;;5049354;28;20221;-69
2021/05/27 08:25:26;;;;;;;2.65;1.83;;;12.30;99.90;;;;;;5050059;28;20225;-69
2021/05/27 08:27:53;;;;;;;2.60;1.40;;;12.50;99.90;;;;;;5048934;28;20220;-69
2021/05/27 08:30:20;;;;;;;1.73;1.50;;;12.70;99.90;;;;;;5049903;28;20470;-69
2021/05/27 08:32:46;;;;;;;2.33;1.70;;;12.70;99.90;;;;;;5049953;28;20217;-69
2021/05/27 08:35:14;;;;;;;2.22;1.75;;;12.70;99.90;;;;;;5049852;28;20193;-69
2021/05/27 08:37:40;;;;;;;3.15;1.70;;;12.90;99.90;;;;;;5049552;28;20208;-69
2021/05/27 08:40:08;;;;;;;1.70;1.50;;;13.30;99.90;;;;;;5049365;28;20246;-69
2021/05/27 08:42:36;;;;;;;1.80;1.47;;;13.40;99.90;;;;;;5049826;28;20494;-69
2021/05/27 08:45:04;;;;;;;3.60;1.80;;;13.30;99.90;;;;;;5051453;28;20483;-69
2021/05/27 08:47:31;;;;;;;2.53;1.70;;;13.10;99.90;;;;;;5053291;28;20475;-69
2021/05/27 08:50:00;;;;;;;4.90;1.50;;;13.00;99.90;;;;;;5053162;28;20470;-69
2021/05/27 08:52:27;;;;;;;1.43;1.33;;;12.80;99.90;;;;;;5052747;28;20487;-69
2021/05/27 08:54:53;;;;;;;2.70;1.47;;;12.80;99.90;;;;;;5053360;28;20459;-69
2021/05/27 08:57:19;;;;;;;1.83;1.70;;;12.90;99.90;;;;;;5053084;28;20467;-68
2021/05/27 08:59:46;;;;;;;1.70;1.60;;;12.80;99.90;;;;;;5052513;28;20470;-69
2021/05/27 09:02:13;;;;;;;1.53;1.43;;;12.90;99.90;;;;;;5052791;28;20898;-69
2021/05/27 09:04:40;;;;;;;2.13;1.57;;;13.00;99.90;;;;;;5052503;28;20483;-68
2021/05/27 09:07:08;;;;;;;2.13;1.80;;;13.00;99.90;;;;;;5053066;28;20542;-68
2021/05/27 09:09:51;;;;;;;1.57;1.30;;;12.90;99.90;;;;;;5052730;28;20814;-69
2021/05/27 09:12:28;;;;;;;3.03;1.65;;;13.00;99.90;;;;;;5053243;28;20487;-68
2021/05/27 09:14:56;;;;;;;1.70;1.50;;;13.30;99.90;;;;;;5054833;28;20197;-69
2021/05/27 09:17:23;;;;;;;2.03;1.83;;;13.60;99.90;;;;;;5050757;28;20460;-68
2021/05/27 09:20:13;;;;;;;1.60;1.43;;;13.80;99.90;;;;;;5051008;28;20955;-68
2021/05/27 09:22:40;;;;;;;2.80;1.33;;;14.00;99.90;;;;;;5049715;28;20505;-68
2021/05/27 09:25:08;;;;;;;1.90;1.50;;;14.20;99.90;;;;;;5051189;28;20490;-68
2021/05/27 09:27:44;;;;;;;2.37;1.40;;;14.40;99.90;;;;;;5051327;28;20951;-69
2021/05/27 09:30:13;;;;;;;1.83;1.40;;;14.60;99.90;;;;;;5051741;28;20467;-68
2021/05/27 09:32:39;;;;;;;2.13;1.50;;;14.80;99.90;;;;;;5050275;28;20487;-68
2021/05/27 09:35:10;;;;;;;1.57;1.30;;;15.00;99.90;;;;;;5050977;28;20466;-68
2021/05/27 09:37:36;;;;;;;1.97;1.73;;;15.00;99.90;;;;;;5050604;28;20466;-69
2021/05/27 09:40:06;;;;;;;2.00;1.53;;;14.90;99.90;;;;;;5051265;28;20459;-69
2021/05/27 09:42:48;;;;;;;1.93;1.47;;;14.80;99.90;;;;;;5050938;28;20578;-68
2021/05/27 09:45:16;;;;;;;1.50;1.40;;;14.80;99.90;;;;;;5051105;28;20510;-68
2021/05/27 09:47:43;;;;;;;3.50;1.47;;;14.70;99.90;;;;;;5050717;28;21025;-68
2021/05/27 09:50:10;;;;;;;2.23;1.30;;;14.60;99.90;;;;;;5051335;28;20497;-68
2021/05/27 09:52:39;;;;;;;2.10;1.70;;;14.60;99.60;;;;;;5049707;28;20491;-69
2021/05/27 09:55:10;;;;;;;1.47;1.33;;;14.60;99.90;;;;;;5050161;28;20456;-69
2021/05/27 09:57:37;;;;;;;1.30;1.20;;;14.50;99.90;;;;;;5050334;28;20467;-69
2021/05/27 10:00:23;;;;;;;2.23;1.60;;;14.60;99.90;;;;;;5050489;28;20495;-69
2021/05/27 10:02:51;;;;;;;1.70;1.43;;;14.40;99.90;;;;;;5050711;28;20479;-69
2021/05/27 10:05:19;;;;;;;4.83;1.40;;;14.30;99.90;;;;;;5050759;28;20487;-68
2021/05/27 10:07:49;;;;;;;3.70;1.90;;;14.20;99.90;;;;;;5048980;28;20496;-69
2021/05/27 10:10:17;;;;;;;3.37;1.30;;;14.10;99.90;;;;;;5050029;28;20582;-69
2021/05/27 10:12:45;;;;;;;1.80;1.60;;;14.10;99.90;;;;;;5049361;28;20975;-69
2021/05/27 10:15:13;;;;;;;2.60;1.50;;;14.10;99.90;;;;;;5050383;28;20874;-69
2021/05/27 10:17:41;;;;;;;2.07;1.50;;;14.10;99.90;;;;;;5050387;28;20470;-69
2021/05/27 10:20:11;;;;;;;2.13;1.60;;;14.00;99.90;;;;;;5049648;28;20470;-69
2021/05/27 10:22:38;;;;;;;1.87;1.30;;;13.90;99.90;;;;;;5049258;28;20490;-69
2021/05/27 10:25:06;;;;;;;2.13;1.80;;;13.80;99.90;;;;;;5050608;28;20483;-69
2021/05/27 10:27:33;;;;;;;2.10;1.17;;;13.80;99.90;;;;;;5050335;28;20842;-69
2021/05/27 10:30:00;;;;;;;1.70;1.50;;;13.80;99.90;;;;;;5049643;28;20455;-68
2021/05/27 10:32:28;;;;;;;2.33;1.33;;;13.90;99.90;;;;;;5049417;28;20494;-68
2021/05/27 10:34:55;;;;;;;1.73;1.10;;;14.00;99.90;;;;;;5050201;28;20505;-69
2021/05/27 10:37:48;;;;;;;2.80;1.23;;;14.00;99.90;;;;;;5049567;28;20951;-67
2021/05/27 10:40:38;;;;;;;2.20;1.00;;;14.10;99.90;;;;;;5043956;28;20462;-69
2021/05/27 10:43:09;;;;;;;1.90;1.30;;;14.10;99.90;;;;;;5049699;28;20471;-68
2021/05/27 10:46:03;;;;;;;2.30;1.40;;;13.90;99.90;;;;;;5050102;28;20513;-69
2021/05/27 10:48:31;;;;;;;1.57;1.20;;;13.90;99.30;;;;;;5049762;28;20464;-68
2021/05/27 10:51:06;;;;;;;4.27;1.60;;;13.90;99.90;;;;;;5048478;28;20493;-67
2021/05/27 10:53:57;;;;;;;2.57;1.50;;;14.00;99.90;;;;;;5049406;28;20495;-68
2021/05/27 10:56:40;;;;;;;5.03;1.43;;;14.10;99.90;;;;;;5050134;28;20459;-68
2021/05/27 10:59:07;;;;;;;2.10;1.40;;;14.20;99.90;;;;;;5043697;28;20469;-68
2021/05/27 11:01:53;;;;;;;2.00;1.70;;;14.20;99.90;;;;;;5047883;28;20467;-69
2021/05/27 11:04:34;;;;;;;1.93;1.73;;;14.10;99.90;;;;;;5049665;28;20846;-68
2021/05/27 11:07:20;;;;;;;3.13;1.80;;;14.00;99.90;;;;;;5049008;28;20463;-68
2021/05/27 11:09:49;;;;;;;3.00;1.40;;;13.90;99.90;;;;;;5049232;28;20466;-69
2021/05/27 11:12:19;;;;;;;3.30;1.73;;;13.80;99.90;;;;;;5047887;28;20475;-67
2021/05/27 11:14:47;;;;;;;1.57;1.40;;;13.90;99.90;;;;;;5048802;28;20459;-69
2021/05/27 11:17:25;;;;;;;2.00;1.40;;;14.00;99.90;;;;;;5049265;28;20455;-68
2021/05/27 11:19:55;;;;;;;3.00;1.60;;;14.10;99.90;;;;;;5048070;28;20451;-69
2021/05/27 11:22:43;;;;;;;3.67;1.80;;;14.20;99.90;;;;;;5048221;28;20476;-68
2021/05/27 11:25:25;;;;;;;3.80;1.57;;;14.40;99.90;;;;;;5049186;28;20530;-69
2021/05/27 11:27:53;;;;;;;2.87;1.60;;;14.50;99.90;;;;;;5048597;28;20463;-69
2021/05/27 11:30:21;;;;;;;3.63;1.60;;;14.60;99.90;;;;;;5048768;28;20463;-67
2021/05/27 11:32:49;;;;;;;1.67;1.57;;;14.80;99.90;;;;;;5048291;28;20912;-69
2021/05/27 11:35:17;;;;;;;3.20;1.97;;;14.90;99.90;;;;;;5049493;28;20454;-68
2021/05/27 11:37:44;;;;;;;2.50;1.50;;;15.10;99.90;;;;;;5048065;28;20468;-69
2021/05/27 11:40:13;;;;;;;2.23;1.60;;;15.30;99.60;;;;;;5048677;28;20471;-69
2021/05/27 11:42:41;;;;;;;1.57;1.33;;;15.30;99.10;;;;;;5047640;28;20483;-68
2021/05/27 11:45:09;;;;;;;3.50;1.63;;;15.30;98.50;;;;;;5047844;28;20488;-68
2021/05/27 11:47:36;;;;;;;3.83;1.63;;;15.30;99.10;;;;;;5049158;28;20459;-68
2021/05/27 11:50:05;;;;;;;1.30;1.20;;;15.20;99.70;;;;;;5048837;28;20459;-68
2021/05/27 11:52:32;;;;;;;2.23;1.20;;;15.10;98.90;;;;;;5047714;28;20498;-68
2021/05/27 11:54:58;;;;;;;1.83;1.60;;;15.00;99.90;;;;;;5049089;28;21061;-69
2021/05/27 11:57:40;;;;;;;2.30;1.50;;;14.90;99.90;;;;;;5049272;28;20464;-68
2021/05/27 12:00:08;;;;;;;2.90;1.63;;;14.80;98.80;;;;;;5048747;28;20462;-68
2021/05/27 12:02:42;;;;;;;2.93;1.40;;;14.70;99.10;;;;;;5047382;28;21008;-68
2021/05/27 12:05:22;;;;;;;3.83;1.93;;;14.70;99.50;;;;;;5048859;28;20998;-68
2021/05/27 12:08:04;;;;;;;1.63;1.20;;;14.70;99.70;;;;;;5048193;28;20870;-67
2021/05/27 12:10:32;;;;;;;1.40;1.20;;;15.00;99.90;;;;;;5045995;28;20459;-67
2021/05/27 12:12:59;;;;;;;2.70;1.40;;;15.60;99.30;;;;;;5048377;28;20522;-68
2021/05/27 12:15:27;;;;;;;1.77;1.27;;;16.40;99.90;;;;;;5048951;28;20617;-67
2021/05/27 12:17:55;;;;;;;1.30;1.20;;;16.70;98.30;;;;;;5048476;28;20653;-66
2021/05/27 12:20:29;;;;;;;1.83;1.50;;;16.80;97.70;;;;;;5050030;28;20454;-66
2021/05/27 12:22:57;;;;;;;1.90;1.50;;;16.60;98.40;;;;;;5052347;28;20532;-67
2021/05/27 12:25:26;;;;;;;1.30;1.10;;;16.40;97.00;;;;;;5052551;28;20509;-67
2021/05/27 12:27:54;;;;;;;1.47;1.37;;;16.10;97.20;;;;;;5051844;28;20562;-67
2021/05/27 12:30:23;;;;;;;1.40;1.30;;;15.90;97.40;;;;;;5051615;28;20455;-66
2021/05/27 12:32:51;;;;;;;1.90;1.30;;;16.20;99.50;;;;;;5051264;28;20540;-66
2021/05/27 12:35:22;;;;;;;1.40;1.30;;;16.40;97.10;;;;;;5051175;28;20505;-66
2021/05/27 12:37:48;;;;;;;1.40;1.30;;;16.50;96.20;;;;;;5051303;28;20451;-66
2021/05/27 12:40:23;;;;;;;1.60;1.30;;;16.50;96.40;;;;;;5051058;28;20876;-67
2021/05/27 12:42:49;;;;;;;1.83;1.60;;;16.20;96.60;;;;;;5051707;28;20490;-67
2021/05/27 12:45:32;;;;;;;2.20;1.77;;;15.90;97.20;;;;;;5052268;28;20834;-66
2021/05/27 12:48:16;;;;;;;2.07;1.47;;;15.70;97.50;;;;;;5052212;28;20556;-66
2021/05/27 12:50:57;;;;;;;1.40;1.30;;;15.60;96.60;;;;;;5051114;28;20459;-67
2021/05/27 12:53:25;;;;;;;1.37;1.27;;;15.70;97.30;;;;;;5051854;28;20483;-67
2021/05/27 12:55:53;;;;;;;1.20;1.10;;;15.80;97.10;;;;;;5052090;28;20584;-67
2021/05/27 12:58:31;;;;;;;3.47;1.60;;;16.10;98.00;;;;;;5051852;28;20829;-67
2021/05/27 13:00:59;;;;;;;2.00;1.47;;;16.40;97.60;;;;;;5050434;28;20459;-66
2021/05/27 13:03:26;;;;;;;1.60;1.43;;;16.60;96.20;;;;;;5051711;28;20484;-67
2021/05/27 13:06:14;;;;;;;2.63;1.60;;;16.70;95.70;;;;;;5051773;28;20487;-66
2021/05/27 13:08:41;;;;;;;1.40;1.23;;;16.90;97.30;;;;;;5044223;28;20474;-67